Time;durP1;ratioP1;P1;durP2;ratioP2;P2;SDS_P1;SDS_P2;PMS_P1;PMS_P2;Temp;Humidity;BMP_temperature;BMP_pressure;BME280_temperature;BME280_humidity;BME280_pressure;Samples;Min_cycle;Max_cycle;Signal;HPM_P1;HPM_P2
2021/10/27 00:02:10;;;;;;;57.95;33.85;;;5.10;99.90;;;;;;4971831;28;20195;-71
2021/10/27 00:04:38;;;;;;;55.35;32.42;;;5.10;99.90;;;;;;4972935;28;20212;-69
2021/10/27 00:07:04;;;;;;;55.80;35.40;;;5.10;99.90;;;;;;4972003;28;20184;-70
2021/10/27 00:09:30;;;;;;;56.45;36.88;;;5.10;99.90;;;;;;4972195;28;20208;-71
2021/10/27 00:11:57;;;;;;;56.85;34.17;;;5.10;99.90;;;;;;4971879;28;20183;-69
2021/10/27 00:14:25;;;;;;;50.97;33.45;;;5.10;99.90;;;;;;4971552;28;20253;-72
2021/10/27 00:16:54;;;;;;;49.40;33.90;;;5.10;99.90;;;;;;4972126;28;20261;-69
2021/10/27 00:19:23;;;;;;;48.90;33.08;;;5.10;99.90;;;;;;4964308;28;20658;-71
2021/10/27 00:21:49;;;;;;;50.85;33.75;;;5.10;99.90;;;;;;4969147;28;20181;-69
2021/10/27 00:24:19;;;;;;;51.87;33.00;;;5.00;99.90;;;;;;4974957;28;20219;-72
2021/10/27 00:26:45;;;;;;;48.92;33.63;;;5.00;99.90;;;;;;4976848;28;20752;-69
2021/10/27 00:29:15;;;;;;;57.50;33.70;;;5.00;99.90;;;;;;4976450;28;20552;-71
2021/10/27 00:31:42;;;;;;;61.35;35.85;;;4.90;99.90;;;;;;4976791;28;20173;-71
2021/10/27 00:34:13;;;;;;;56.80;35.25;;;4.90;99.90;;;;;;4976068;28;20184;-71
2021/10/27 00:36:40;;;;;;;53.80;33.10;;;4.90;99.90;;;;;;4979437;28;20192;-69
2021/10/27 00:39:06;;;;;;;46.57;30.27;;;4.90;99.90;;;;;;4979367;28;20574;-69
2021/10/27 00:41:42;;;;;;;48.15;33.33;;;4.80;99.90;;;;;;4979573;28;20388;-72
2021/10/27 00:44:20;;;;;;;53.25;32.10;;;4.80;99.90;;;;;;4979216;28;20310;-71
2021/10/27 00:47:01;;;;;;;54.85;31.85;;;4.80;99.90;;;;;;4979482;28;20172;-72
2021/10/27 00:49:29;;;;;;;49.15;34.53;;;4.80;99.90;;;;;;4979366;28;20207;-68
2021/10/27 00:51:56;;;;;;;49.90;32.45;;;4.70;99.90;;;;;;4979607;28;20183;-69
2021/10/27 00:54:28;;;;;;;46.58;32.65;;;4.70;99.90;;;;;;4979112;28;20207;-70
2021/10/27 00:56:57;;;;;;;47.75;32.03;;;4.70;99.90;;;;;;4979370;28;20641;-71
2021/10/27 00:59:25;;;;;;;48.45;31.15;;;4.70;99.90;;;;;;4979101;28;20228;-72
2021/10/27 01:01:56;;;;;;;52.25;31.30;;;4.70;99.90;;;;;;4979143;28;20235;-69
2021/10/27 01:04:27;;;;;;;52.47;32.47;;;4.70;99.90;;;;;;4978997;28;20278;-71
2021/10/27 01:06:53;;;;;;;50.88;31.33;;;4.70;99.90;;;;;;4979039;28;20210;-69
2021/10/27 01:09:22;;;;;;;52.20;31.73;;;4.70;99.90;;;;;;4979155;28;20244;-71
2021/10/27 01:11:48;;;;;;;54.22;33.05;;;4.60;99.90;;;;;;4979010;28;20927;-71
2021/10/27 01:14:19;;;;;;;42.83;27.75;;;4.60;99.90;;;;;;4978783;28;20192;-71
2021/10/27 01:16:47;;;;;;;42.75;31.48;;;4.60;99.90;;;;;;4979017;28;20183;-69
2021/10/27 01:19:15;;;;;;;47.95;30.00;;;4.60;99.90;;;;;;4996281;28;20183;-71
2021/10/27 01:21:41;;;;;;;41.53;28.50;;;4.60;99.90;;;;;;4978886;28;20176;-69
2021/10/27 01:24:08;;;;;;;41.70;30.05;;;4.60;99.90;;;;;;4978891;28;20215;-70
2021/10/27 01:26:34;;;;;;;44.55;29.30;;;4.60;99.90;;;;;;4978793;28;20338;-69
2021/10/27 01:29:01;;;;;;;42.53;27.13;;;4.60;99.90;;;;;;4978400;28;20658;-69
2021/10/27 01:31:27;;;;;;;46.38;28.38;;;4.60;99.90;;;;;;4978719;28;20180;-70
2021/10/27 01:33:57;;;;;;;41.88;28.48;;;4.50;99.90;;;;;;4978662;28;20279;-70
2021/10/27 01:36:23;;;;;;;44.17;29.05;;;4.40;99.90;;;;;;4977968;28;20236;-69
2021/10/27 01:38:52;;;;;;;40.00;28.10;;;4.40;99.90;;;;;;4978792;28;20222;-71
2021/10/27 01:41:20;;;;;;;41.70;27.13;;;4.40;99.90;;;;;;4978605;28;20427;-69
2021/10/27 01:43:53;;;;;;;40.97;27.92;;;4.30;99.90;;;;;;4978359;28;20242;-71
2021/10/27 01:46:38;;;;;;;44.80;28.20;;;4.30;99.90;;;;;;4978137;28;20204;-71
2021/10/27 01:49:09;;;;;;;42.95;27.50;;;4.30;99.90;;;;;;4978103;28;20583;-71
2021/10/27 01:51:37;;;;;;;44.30;27.95;;;4.30;99.90;;;;;;4978285;28;20183;-69
2021/10/27 01:54:05;;;;;;;40.22;28.08;;;4.20;99.90;;;;;;4978122;28;20188;-69
2021/10/27 01:56:31;;;;;;;47.70;30.50;;;4.20;99.90;;;;;;4977789;28;20172;-69
2021/10/27 01:59:00;;;;;;;45.15;30.15;;;4.20;99.90;;;;;;4977778;28;20188;-72
2021/10/27 02:01:27;;;;;;;48.92;30.30;;;4.20;99.90;;;;;;4977961;28;20597;-71
2021/10/27 02:04:00;;;;;;;42.50;29.00;;;4.20;99.90;;;;;;4977800;28;20381;-71
2021/10/27 02:06:28;;;;;;;44.00;29.67;;;4.20;99.90;;;;;;4978382;28;20282;-71
2021/10/27 02:08:58;;;;;;;49.55;30.80;;;4.20;99.90;;;;;;4977741;28;20218;-72
2021/10/27 02:11:24;;;;;;;41.47;27.88;;;4.20;99.90;;;;;;4978420;28;20230;-69
2021/10/27 02:13:51;;;;;;;49.15;28.95;;;4.20;99.90;;;;;;4977675;28;20188;-69
2021/10/27 02:16:22;;;;;;;43.85;29.48;;;4.10;99.90;;;;;;4977899;28;20231;-71
2021/10/27 02:18:49;;;;;;;41.38;29.42;;;4.10;99.90;;;;;;4977706;28;20648;-69
2021/10/27 02:21:17;;;;;;;46.53;28.77;;;4.10;99.90;;;;;;4977300;28;20700;-71
2021/10/27 02:23:43;;;;;;;43.10;28.00;;;4.10;99.90;;;;;;4977479;28;20220;-69
2021/10/27 02:26:09;;;;;;;41.35;29.27;;;4.10;99.90;;;;;;4977740;28;20210;-70
2021/10/27 02:28:41;;;;;;;45.25;28.95;;;4.10;99.90;;;;;;4977663;28;20180;-71
2021/10/27 02:31:12;;;;;;;41.67;25.80;;;4.10;99.90;;;;;;4977571;28;20299;-69
2021/10/27 02:33:41;;;;;;;40.15;28.60;;;4.00;99.90;;;;;;4977649;28;20171;-71
2021/10/27 02:36:09;;;;;;;40.33;26.52;;;4.00;99.90;;;;;;4973981;28;20272;-68
2021/10/27 02:38:35;;;;;;;41.78;26.15;;;4.00;99.90;;;;;;4974530;28;20177;-69
2021/10/27 02:41:02;;;;;;;36.92;27.67;;;4.00;99.90;;;;;;4974137;28;20219;-69
2021/10/27 02:43:30;;;;;;;39.60;27.52;;;3.90;99.90;;;;;;4974044;28;20205;-71
2021/10/27 02:46:04;;;;;;;42.28;27.92;;;3.90;99.90;;;;;;4973452;28;20299;-71
2021/10/27 02:48:30;;;;;;;37.38;27.20;;;3.90;99.90;;;;;;4973941;28;20176;-70
2021/10/27 02:50:56;;;;;;;48.33;27.83;;;3.90;99.90;;;;;;4974168;28;20215;-69
2021/10/27 02:53:23;;;;;;;44.05;29.42;;;3.90;99.90;;;;;;4958908;28;20427;-69
2021/10/27 02:55:49;;;;;;;42.45;29.10;;;3.80;99.90;;;;;;4973989;28;20240;-69
2021/10/27 02:58:15;;;;;;;49.47;29.50;;;3.80;99.90;;;;;;4975150;28;20169;-69
2021/10/27 03:00:42;;;;;;;45.33;29.20;;;3.80;99.90;;;;;;4968834;28;20255;-69
2021/10/27 03:03:08;;;;;;;42.42;27.75;;;3.80;99.90;;;;;;4973509;28;20177;-71
2021/10/27 03:05:35;;;;;;;42.22;26.20;;;3.90;99.90;;;;;;4973573;28;20212;-69
2021/10/27 03:08:01;;;;;;;45.20;28.20;;;3.90;99.90;;;;;;4973563;28;20183;-70
2021/10/27 03:10:32;;;;;;;39.28;27.23;;;3.90;99.90;;;;;;4973751;28;20742;-71
2021/10/27 03:12:59;;;;;;;47.50;30.77;;;3.90;99.90;;;;;;4973743;28;20243;-69
2021/10/27 03:15:35;;;;;;;49.30;29.95;;;3.80;99.90;;;;;;4973646;28;20212;-71
2021/10/27 03:18:02;;;;;;;43.88;28.02;;;3.80;99.90;;;;;;4973742;28;20176;-71
2021/10/27 03:20:32;;;;;;;49.90;30.63;;;3.80;99.90;;;;;;4973234;28;20219;-70
2021/10/27 03:22:58;;;;;;;46.25;29.55;;;3.80;99.90;;;;;;4973350;28;20183;-70
2021/10/27 03:25:28;;;;;;;47.90;30.67;;;3.80;99.90;;;;;;4973603;28;20208;-71
2021/10/27 03:27:56;;;;;;;40.75;28.17;;;3.80;99.90;;;;;;4973719;28;20420;-70
2021/10/27 03:30:28;;;;;;;46.47;28.48;;;3.70;99.90;;;;;;4973628;28;20204;-71
2021/10/27 03:32:57;;;;;;;47.13;28.88;;;3.70;99.90;;;;;;4973439;28;20267;-72
2021/10/27 03:35:29;;;;;;;44.58;28.38;;;3.60;99.90;;;;;;4973094;28;20268;-70
2021/10/27 03:38:02;;;;;;;41.03;26.65;;;3.60;99.90;;;;;;4973619;28;20191;-71
2021/10/27 03:40:29;;;;;;;41.80;26.92;;;3.60;99.90;;;;;;4973140;28;20678;-72
2021/10/27 03:42:56;;;;;;;37.53;24.88;;;3.60;99.90;;;;;;4973583;28;20589;-71
2021/10/27 03:45:22;;;;;;;35.78;23.60;;;3.60;99.90;;;;;;4973345;28;20208;-70
2021/10/27 03:47:49;;;;;;;29.60;20.73;;;3.60;99.90;;;;;;4973617;28;20187;-71
2021/10/27 03:50:15;;;;;;;30.85;20.30;;;3.50;99.90;;;;;;4973241;28;20255;-70
2021/10/27 03:52:44;;;;;;;35.03;21.75;;;3.50;99.90;;;;;;4973506;28;20188;-70
2021/10/27 03:55:12;;;;;;;38.38;23.40;;;3.50;99.90;;;;;;4973085;28;20255;-70
2021/10/27 03:57:38;;;;;;;36.70;21.90;;;3.60;99.90;;;;;;4973065;28;20264;-70
2021/10/27 04:00:06;;;;;;;29.00;19.98;;;3.60;99.90;;;;;;4976133;28;20208;-70
2021/10/27 04:02:32;;;;;;;41.63;22.98;;;3.60;99.90;;;;;;4978568;28;20180;-70
2021/10/27 04:04:58;;;;;;;36.60;22.70;;;3.50;99.90;;;;;;4976693;28;20826;-70
2021/10/27 04:07:24;;;;;;;36.10;21.20;;;3.60;99.90;;;;;;4977225;28;20541;-70
2021/10/27 04:09:50;;;;;;;33.00;22.55;;;3.60;99.90;;;;;;4976931;28;20457;-71
2021/10/27 04:12:16;;;;;;;34.28;22.23;;;3.60;99.90;;;;;;4976956;28;20184;-70
2021/10/27 04:14:42;;;;;;;44.47;24.40;;;3.60;99.90;;;;;;4976554;28;20204;-69
2021/10/27 04:17:08;;;;;;;39.20;21.83;;;3.60;99.90;;;;;;4976765;28;20180;-69
2021/10/27 04:19:35;;;;;;;35.45;22.13;;;3.70;99.90;;;;;;4976515;28;20451;-70
2021/10/27 04:22:01;;;;;;;39.95;23.38;;;3.80;99.90;;;;;;4976741;28;20181;-72
2021/10/27 04:24:27;;;;;;;41.33;22.27;;;3.90;99.90;;;;;;4976446;28;20228;-70
2021/10/27 04:26:55;;;;;;;35.03;22.87;;;4.10;99.90;;;;;;4976362;28;20551;-72
2021/10/27 04:29:27;;;;;;;35.60;23.15;;;4.20;99.90;;;;;;4975360;28;20209;-72
2021/10/27 04:31:55;;;;;;;34.55;23.13;;;4.40;99.90;;;;;;4974923;28;20184;-72
2021/10/27 04:34:27;;;;;;;32.72;21.83;;;4.50;99.90;;;;;;4970549;28;20215;-68
2021/10/27 04:36:53;;;;;;;34.72;23.65;;;4.60;99.90;;;;;;4976364;28;20200;-71
2021/10/27 04:39:19;;;;;;;38.22;25.17;;;4.60;99.90;;;;;;4976003;28;20682;-71
2021/10/27 04:41:47;;;;;;;39.63;24.70;;;4.70;99.90;;;;;;4976387;28;20186;-69
2021/10/27 04:44:13;;;;;;;37.25;24.98;;;4.70;99.90;;;;;;4976086;28;20220;-72
2021/10/27 04:46:41;;;;;;;33.77;23.80;;;4.70;99.90;;;;;;4975624;28;20549;-70
2021/10/27 04:49:07;;;;;;;32.22;21.88;;;4.80;99.90;;;;;;4975680;28;20189;-69
2021/10/27 04:51:35;;;;;;;37.20;24.38;;;4.80;99.90;;;;;;4975807;28;20656;-69
2021/10/27 04:54:01;;;;;;;35.67;23.52;;;4.80;99.90;;;;;;4975703;28;20185;-72
2021/10/27 04:56:29;;;;;;;36.63;23.83;;;4.60;99.90;;;;;;4975127;28;20181;-69
2021/10/27 04:58:57;;;;;;;30.83;22.42;;;4.40;99.90;;;;;;4975729;28;20423;-69
2021/10/27 05:01:25;;;;;;;38.97;24.75;;;4.20;99.90;;;;;;4975258;28;20685;-68
2021/10/27 05:03:51;;;;;;;31.77;21.25;;;4.10;99.90;;;;;;4975671;28;20223;-71
2021/10/27 05:06:19;;;;;;;36.85;23.27;;;3.90;99.90;;;;;;4974887;28;20239;-71
2021/10/27 05:08:47;;;;;;;37.28;23.45;;;3.80;99.90;;;;;;4975502;28;20181;-69
2021/10/27 05:11:18;;;;;;;38.58;25.70;;;3.60;99.90;;;;;;4973993;28;20224;-71
2021/10/27 05:13:46;;;;;;;38.28;25.00;;;3.40;99.90;;;;;;4976001;28;20204;-72
2021/10/27 05:16:17;;;;;;;39.83;25.98;;;3.30;99.90;;;;;;4975228;28;20208;-71
2021/10/27 05:18:43;;;;;;;32.38;22.48;;;3.20;99.90;;;;;;4974199;28;20324;-69
2021/10/27 05:21:11;;;;;;;34.95;23.00;;;3.20;99.90;;;;;;4955669;29;20616;-71
2021/10/27 05:23:38;;;;;;;31.05;22.35;;;3.20;99.90;;;;;;4969500;28;20697;-69
2021/10/27 05:26:04;;;;;;;40.40;25.10;;;3.20;99.90;;;;;;4974336;28;20678;-72
2021/10/27 05:28:30;;;;;;;42.08;25.25;;;3.10;99.90;;;;;;4974914;28;20179;-69
2021/10/27 05:30:57;;;;;;;37.37;25.80;;;3.10;99.90;;;;;;4968012;28;20662;-69
2021/10/27 05:33:28;;;;;;;47.28;28.25;;;3.10;99.90;;;;;;4957836;28;20428;-71
2021/10/27 05:35:54;;;;;;;36.25;25.13;;;3.10;99.90;;;;;;4957699;28;20713;-69
2021/10/27 05:38:24;;;;;;;44.35;24.08;;;3.10;99.90;;;;;;4959082;28;20177;-70
2021/10/27 05:40:57;;;;;;;41.22;25.48;;;3.10;99.90;;;;;;4959052;28;20204;-69
2021/10/27 05:43:32;;;;;;;40.58;27.10;;;3.10;99.90;;;;;;4966761;28;20283;-71
2021/10/27 05:46:03;;;;;;;48.88;27.65;;;3.10;99.90;;;;;;4975091;28;20215;-71
2021/10/27 05:48:38;;;;;;;41.50;26.88;;;3.10;99.90;;;;;;4974159;28;20535;-72
2021/10/27 05:56:19;;;;;;;45.13;27.98;;;3.10;99.90;;;;;;4973363;28;20512;-72
2021/10/27 05:58:45;;;;;;;39.47;25.73;;;3.20;99.90;;;;;;4974859;28;20191;-71
2021/10/27 06:01:19;;;;;;;49.30;28.67;;;3.20;99.90;;;;;;4972305;28;20220;-71
2021/10/27 06:03:46;;;;;;;37.92;24.48;;;3.20;99.90;;;;;;4975615;28;20211;-69
2021/10/27 06:06:14;;;;;;;44.30;26.73;;;3.30;99.90;;;;;;4972171;28;20216;-71
2021/10/27 06:08:43;;;;;;;49.15;30.05;;;3.30;99.90;;;;;;4973289;28;20187;-69
2021/10/27 06:11:11;;;;;;;44.72;28.70;;;3.40;99.90;;;;;;4974506;28;20304;-69
2021/10/27 06:13:46;;;;;;;44.35;26.77;;;3.50;99.90;;;;;;4974363;28;20196;-69
2021/10/27 06:16:17;;;;;;;48.47;28.10;;;3.60;99.90;;;;;;4974286;28;20212;-69
2021/10/27 06:18:45;;;;;;;45.63;29.65;;;3.60;99.90;;;;;;4972480;28;20177;-71
2021/10/27 06:21:17;;;;;;;51.65;32.88;;;3.70;99.90;;;;;;4970856;28;20215;-71
2021/10/27 06:23:43;;;;;;;53.42;32.05;;;3.70;99.90;;;;;;4973532;28;20236;-69
2021/10/27 06:26:09;;;;;;;54.30;31.60;;;3.80;99.90;;;;;;4972202;28;20207;-69
2021/10/27 06:28:46;;;;;;;48.83;31.77;;;3.90;99.90;;;;;;4967279;28;20410;-69
2021/10/27 06:31:24;;;;;;;46.88;30.73;;;4.00;99.90;;;;;;4974164;28;20215;-72
2021/10/27 06:33:56;;;;;;;48.40;31.52;;;4.20;99.90;;;;;;4970395;28;20189;-69
2021/10/27 06:47:19;;;;;;;54.05;34.30;;;4.90;99.90;;;;;;4974191;28;20194;-71
2021/10/27 06:49:47;;;;;;;51.17;35.22;;;5.10;99.90;;;;;;4966202;28;20209;-72
2021/10/27 06:52:17;;;;;;;56.90;33.50;;;5.20;99.90;;;;;;4968968;28;20216;-72
2021/10/27 06:54:48;;;;;;;52.67;34.95;;;5.40;99.90;;;;;;4966055;28;20208;-69
2021/10/27 06:57:14;;;;;;;62.38;40.83;;;5.60;99.90;;;;;;4962350;28;20187;-68
2021/10/27 07:00:13;;;;;;;62.83;38.58;;;5.70;99.90;;;;;;4964880;28;20212;-71
2021/10/27 07:19:35;;;;;;;43.17;28.52;;;7.90;99.90;;;;;;4970931;28;20720;-68
2021/10/27 07:22:05;;;;;;;40.15;26.73;;;8.10;99.90;;;;;;4965583;28;20218;-72
2021/10/27 07:24:36;;;;;;;45.88;26.75;;;8.20;99.90;;;;;;4948023;28;20283;-72
2021/10/27 07:27:11;;;;;;;36.63;23.55;;;8.40;99.90;;;;;;4963221;28;20212;-72
2021/10/27 07:29:43;;;;;;;31.35;23.17;;;8.50;99.90;;;;;;4964689;28;20270;-72
2021/10/27 07:32:14;;;;;;;34.25;22.88;;;8.80;99.90;;;;;;4965314;28;20278;-68
2021/10/27 07:42:44;;;;;;;33.38;23.92;;;11.40;99.90;;;;;;4960100;28;20646;-71
2021/10/27 07:45:10;;;;;;;38.25;25.20;;;12.30;99.90;;;;;;4972357;28;20288;-71
2021/10/27 07:47:36;;;;;;;36.38;24.70;;;13.10;99.90;;;;;;4965783;28;20557;-73
2021/10/27 07:50:04;;;;;;;40.17;27.83;;;13.70;99.90;;;;;;4969237;28;20653;-75
2021/10/27 07:52:33;;;;;;;38.63;25.70;;;14.30;99.90;;;;;;4970998;28;20220;-62
2021/10/27 07:55:15;;;;;;;35.07;24.43;;;14.70;99.90;;;;;;4972156;28;20548;-72
2021/10/27 07:57:48;;;;;;;42.20;27.57;;;15.20;99.90;;;;;;4970512;28;20848;-68
2021/10/27 08:00:26;;;;;;;45.60;29.83;;;15.80;99.90;;;;;;4971999;28;20520;-67
2021/10/27 08:03:03;;;;;;;32.70;23.37;;;16.30;99.90;;;;;;4945991;28;20438;-66
2021/10/27 08:05:49;;;;;;;31.00;21.63;;;17.00;99.90;;;;;;4958309;28;20561;-74
2021/10/27 08:08:24;;;;;;;28.87;19.50;;;17.60;99.30;;;;;;4967509;28;20509;-67
2021/10/27 08:10:51;;;;;;;28.93;19.30;;;18.30;97.40;;;;;;4971871;28;20432;-67
2021/10/27 08:13:18;;;;;;;27.37;20.00;;;18.80;95.60;;;;;;4974771;28;20421;-67
2021/10/27 08:15:44;;;;;;;30.67;20.17;;;19.20;94.90;;;;;;4971106;28;20466;-66
2021/10/27 08:18:39;;;;;;;29.77;21.17;;;19.70;93.50;;;;;;4962305;28;20440;-75
2021/10/27 08:21:10;;;;;;;29.70;20.47;;;20.00;92.60;;;;;;4971928;28;20674;-67
2021/10/27 08:23:41;;;;;;;28.60;19.60;;;20.20;91.80;;;;;;4973617;28;20871;-75
2021/10/27 08:26:18;;;;;;;25.33;18.83;;;20.20;91.60;;;;;;4969036;28;20922;-74
2021/10/27 08:28:56;;;;;;;28.00;19.43;;;19.90;91.20;;;;;;4972523;28;20530;-73
2021/10/27 08:32:11;;;;;;;30.23;19.73;;;19.40;91.30;;;;;;4974211;28;21014;-75
2021/10/27 08:34:46;;;;;;;33.03;19.90;;;18.70;91.90;;;;;;4962624;28;20488;-75
2021/10/27 08:37:37;;;;;;;26.13;19.47;;;17.90;92.10;;;;;;4969936;28;20453;-75
2021/10/27 08:40:06;;;;;;;31.87;19.07;;;17.40;92.90;;;;;;4963482;28;20961;-74
2021/10/27 08:42:34;;;;;;;32.00;20.53;;;17.00;93.30;;;;;;4963911;28;20917;-68
2021/10/27 08:45:06;;;;;;;28.97;20.70;;;16.60;93.50;;;;;;4964320;28;20523;-67
2021/10/27 08:47:34;;;;;;;30.43;22.10;;;16.30;94.20;;;;;;4965145;28;20448;-68
2021/10/27 08:50:03;;;;;;;31.20;21.13;;;16.00;94.60;;;;;;4973688;28;20517;-67
2021/10/27 08:52:29;;;;;;;32.03;21.60;;;15.60;95.30;;;;;;4971167;28;20461;-67
2021/10/27 08:54:57;;;;;;;29.27;21.40;;;15.30;95.90;;;;;;4967421;28;20463;-73
2021/10/27 08:57:24;;;;;;;26.30;19.03;;;15.00;96.10;;;;;;4965657;28;20566;-73
2021/10/27 09:05:19;;;;;;;25.87;18.83;;;14.30;97.10;;;;;;4967817;28;20529;-74
2021/10/27 09:36:52;;;;;;;27.33;22.83;;;14.00;98.70;;;;;;4911475;29;20567;-71
2021/10/27 09:40:06;;;;;;;27.80;20.07;;;13.90;98.80;;;;;;4964402;28;20462;-72
2021/10/27 09:43:33;;;;;;;26.77;20.10;;;14.00;98.90;;;;;;4971851;28;20470;-72
2021/10/27 10:05:59;;;;;;;27.17;20.37;;;14.50;98.80;;;;;;4964494;28;22032;-72
2021/10/27 10:08:31;;;;;;;27.10;18.40;;;14.60;98.40;;;;;;4966607;28;20798;-72
2021/10/27 10:11:00;;;;;;;28.27;19.20;;;14.70;98.50;;;;;;4966932;28;20880;-72
2021/10/27 10:13:35;;;;;;;25.80;18.50;;;14.80;98.40;;;;;;4968605;28;20445;-73
2021/10/27 10:19:42;;;;;;;23.83;18.07;;;14.90;98.30;;;;;;4956195;28;20473;-73
2021/10/27 10:22:55;;;;;;;29.03;20.27;;;14.90;97.90;;;;;;4964508;28;20881;-74
2021/10/27 10:29:03;;;;;;;29.03;19.20;;;14.90;97.60;;;;;;4963946;28;20603;-74
2021/10/27 10:31:31;;;;;;;28.80;19.40;;;15.00;97.70;;;;;;4973345;28;21009;-70
2021/10/27 10:34:09;;;;;;;28.37;18.90;;;15.00;97.80;;;;;;4967113;28;20434;-74
2021/10/27 10:37:40;;;;;;;23.10;19.03;;;15.10;97.60;;;;;;4966542;28;20494;-70
2021/10/27 10:43:14;;;;;;;24.30;18.27;;;15.10;97.30;;;;;;4967935;28;20427;-75
2021/10/27 10:45:52;;;;;;;25.50;18.17;;;15.20;97.10;;;;;;4960766;28;20482;-74
2021/10/27 11:39:43;;;;;;;17.13;13.20;;;15.80;94.80;;;;;;4970283;28;20525;-72
2021/10/27 11:44:57;;;;;;;17.83;12.20;;;15.90;94.80;;;;;;4974370;28;20911;-71
2021/10/27 11:47:43;;;;;;;13.37;10.73;;;15.90;94.20;;;;;;4957006;28;20442;-74
2021/10/27 11:50:21;;;;;;;15.83;11.37;;;16.00;93.40;;;;;;4954854;28;20472;-74
2021/10/27 11:52:52;;;;;;;14.77;10.80;;;16.00;93.60;;;;;;4968480;28;20981;-70
2021/10/27 11:55:20;;;;;;;15.60;11.43;;;16.00;93.50;;;;;;4967944;28;20493;-75
2021/10/27 11:57:53;;;;;;;17.30;11.60;;;16.00;93.50;;;;;;4968273;28;20425;-74
2021/10/27 12:00:38;;;;;;;20.67;12.43;;;16.10;93.50;;;;;;4969833;28;20465;-74
2021/10/27 12:03:13;;;;;;;16.00;11.60;;;16.10;93.00;;;;;;4967222;28;20431;-75
2021/10/27 12:19:25;;;;;;;18.87;13.13;;;16.10;93.70;;;;;;4967126;28;20414;-74
2021/10/27 12:22:03;;;;;;;13.77;10.83;;;16.10;93.40;;;;;;4956717;28;20783;-69
2021/10/27 12:24:38;;;;;;;11.50;8.73;;;16.10;93.00;;;;;;4966782;28;20521;-69
2021/10/27 12:27:41;;;;;;;11.07;9.40;;;16.20;92.80;;;;;;4967945;28;20931;-70
2021/10/27 12:30:08;;;;;;;15.93;10.90;;;16.20;92.10;;;;;;4981093;23;20885;-70
2021/10/27 12:32:34;;;;;;;12.20;9.53;;;16.20;92.20;;;;;;4930763;29;20424;-69
2021/10/27 12:35:12;;;;;;;13.80;9.67;;;16.20;91.90;;;;;;4929334;29;20467;-70
2021/10/27 12:37:56;;;;;;;16.53;10.67;;;16.20;91.90;;;;;;4911550;29;20566;-74
2021/10/27 12:40:36;;;;;;;13.93;9.70;;;16.20;91.70;;;;;;4917051;29;20462;-75
2021/10/27 12:43:15;;;;;;;11.60;9.77;;;16.20;91.50;;;;;;4912972;29;20427;-75
2021/10/27 12:45:47;;;;;;;14.83;9.70;;;16.20;91.30;;;;;;4908307;29;20474;-70
2021/10/27 12:48:45;;;;;;;14.70;9.77;;;16.20;91.60;;;;;;4912140;29;20916;-73
2021/10/27 12:51:14;;;;;;;10.93;8.23;;;16.20;91.20;;;;;;4920744;29;20459;-69
2021/10/27 12:53:44;;;;;;;13.03;9.07;;;16.30;91.00;;;;;;4912783;29;20451;-68
2021/10/27 12:56:18;;;;;;;19.47;7.70;;;16.30;91.20;;;;;;4922349;29;20525;-68
2021/10/27 12:59:15;;;;;;;12.50;8.77;;;16.30;90.10;;;;;;4910708;29;20483;-73
2021/10/27 13:01:47;;;;;;;9.27;8.03;;;16.30;90.10;;;;;;4923298;29;20748;-69
2021/10/27 13:04:23;;;;;;;11.77;9.10;;;16.30;89.20;;;;;;4904330;29;20520;-71
2021/10/27 13:21:04;;;;;;;15.10;10.13;;;16.50;90.10;;;;;;4894423;29;20544;-73
2021/10/27 13:23:57;;;;;;;13.00;9.30;;;16.50;90.30;;;;;;4903493;29;20421;-69
2021/10/27 13:32:06;;;;;;;13.60;9.80;;;16.60;90.20;;;;;;4925145;29;20438;-70
2021/10/27 13:34:34;;;;;;;14.57;9.63;;;16.70;90.30;;;;;;4907536;29;20566;-73
2021/10/27 13:37:04;;;;;;;13.80;9.27;;;16.70;90.20;;;;;;4908817;29;20976;-69
2021/10/27 13:39:30;;;;;;;11.10;9.10;;;16.80;90.20;;;;;;4913338;29;20482;-69
2021/10/27 13:41:59;;;;;;;14.93;10.10;;;16.80;90.20;;;;;;4913862;29;20522;-73
2021/10/27 13:44:29;;;;;;;13.80;9.70;;;16.80;90.20;;;;;;4909871;29;20485;-73
2021/10/27 13:47:04;;;;;;;13.87;8.83;;;16.90;90.20;;;;;;4912730;29;20448;-73
2021/10/27 14:06:07;;;;;;;15.67;9.87;;;16.90;89.20;;;;;;4930148;29;20607;-73
2021/10/27 14:16:51;;;;;;;17.43;9.73;;;16.80;89.00;;;;;;4930882;29;20419;-73
2021/10/27 15:21:28;;;;;;;20.43;13.07;;;15.90;93.80;;;;;;4932005;29;20466;-70
2021/10/27 15:24:41;;;;;;;40.13;21.87;;;15.70;94.20;;;;;;4919575;29;20508;-69
2021/10/27 15:28:00;;;;;;;27.23;15.60;;;15.50;94.30;;;;;;4914521;29;20448;-69
2021/10/27 15:34:01;;;;;;;25.77;13.83;;;15.10;94.80;;;;;;4926936;29;20423;-73
2021/10/27 15:42:48;;;;;;;28.23;17.73;;;14.50;95.60;;;;;;4934550;29;20451;-69
2021/10/27 15:50:42;;;;;;;27.87;20.87;;;14.00;96.70;;;;;;4923104;29;20524;-74
2021/10/27 15:53:09;;;;;;;27.57;20.37;;;13.80;96.90;;;;;;4908401;29;20423;-74
2021/10/27 15:55:36;;;;;;;28.57;24.10;;;13.60;97.00;;;;;;4912793;29;20467;-70
2021/10/27 15:58:04;;;;;;;40.93;25.00;;;13.50;97.60;;;;;;4916191;29;20479;-73
2021/10/27 16:00:30;;;;;;;33.27;24.70;;;13.40;97.20;;;;;;4918392;29;20825;-69
2021/10/27 16:03:05;;;;;;;36.17;24.27;;;13.20;97.60;;;;;;4922683;29;20412;-73
2021/10/27 16:05:34;;;;;;;35.27;26.00;;;13.10;97.80;;;;;;4931639;29;20987;-69
2021/10/27 16:08:01;;;;;;;43.77;29.50;;;12.90;98.00;;;;;;4935155;29;20459;-73
2021/10/27 16:10:36;;;;;;;64.97;42.17;;;12.80;98.00;;;;;;4928450;29;20475;-73
2021/10/27 16:13:07;;;;;;;50.73;34.60;;;12.70;98.30;;;;;;4912180;29;20423;-73
2021/10/27 16:16:00;;;;;;;85.47;51.60;;;12.60;98.60;;;;;;4933152;29;20459;-74
2021/10/27 16:18:32;;;;;;;143.25;83.13;;;12.50;98.60;;;;;;4916592;29;20452;-70
2021/10/27 16:21:01;;;;;;;206.50;122.10;;;12.30;99.00;;;;;;4917359;29;20201;-70
2021/10/27 16:23:30;;;;;;;208.30;120.05;;;12.20;99.30;;;;;;4920961;29;20245;-70
2021/10/27 16:26:07;;;;;;;113.18;65.68;;;12.10;99.40;;;;;;4920342;29;20226;-70
2021/10/27 16:28:36;;;;;;;101.90;60.63;;;12.00;99.40;;;;;;4920290;29;20188;-70
2021/10/27 16:31:04;;;;;;;90.32;50.45;;;11.90;99.60;;;;;;4919654;29;20255;-69
2021/10/27 16:33:33;;;;;;;88.88;55.17;;;11.90;99.80;;;;;;4904668;29;20173;-73
2021/10/27 16:36:04;;;;;;;106.20;58.88;;;11.80;99.90;;;;;;4916072;29;20707;-73
2021/10/27 16:38:30;;;;;;;136.65;68.57;;;11.70;99.90;;;;;;4912744;29;20221;-70
2021/10/27 16:40:57;;;;;;;176.23;81.13;;;11.60;99.90;;;;;;4918631;29;20640;-73
2021/10/27 16:43:27;;;;;;;195.43;91.43;;;11.50;99.90;;;;;;4919338;29;20245;-70
2021/10/27 16:45:55;;;;;;;168.23;82.20;;;11.50;99.90;;;;;;4919029;29;20209;-72
2021/10/27 16:48:23;;;;;;;210.32;97.88;;;11.40;99.90;;;;;;4917377;29;20240;-70
2021/10/27 16:50:51;;;;;;;233.48;103.20;;;11.30;99.90;;;;;;4918266;29;20778;-70
2021/10/27 16:53:20;;;;;;;224.23;100.57;;;11.20;99.90;;;;;;4918786;29;20225;-73
2021/10/27 16:55:47;;;;;;;217.80;100.63;;;11.10;99.90;;;;;;4914378;29;20236;-70
2021/10/27 16:58:16;;;;;;;225.10;102.97;;;11.00;99.90;;;;;;4918854;29;20253;-68
2021/10/27 17:00:43;;;;;;;228.73;106.45;;;10.90;99.90;;;;;;4928192;29;20202;-72
2021/10/27 17:03:12;;;;;;;231.47;103.80;;;10.90;99.90;;;;;;4900051;29;20182;-72
2021/10/27 17:05:40;;;;;;;232.60;101.38;;;10.80;99.90;;;;;;4901330;29;20501;-70
2021/10/27 17:08:21;;;;;;;216.38;102.50;;;10.70;99.90;;;;;;4932369;29;20209;-71
2021/10/27 17:10:51;;;;;;;227.35;109.65;;;10.70;99.90;;;;;;4901122;29;20742;-73
2021/10/27 17:13:21;;;;;;;214.73;105.40;;;10.60;99.90;;;;;;4900307;29;20265;-74
2021/10/27 17:15:49;;;;;;;202.40;96.57;;;10.60;99.90;;;;;;4918013;29;20213;-70
2021/10/27 17:18:19;;;;;;;188.10;90.03;;;10.50;99.90;;;;;;4915666;29;20249;-71
2021/10/27 17:20:47;;;;;;;190.90;91.25;;;10.40;99.90;;;;;;4913689;29;20567;-70
2021/10/27 17:23:27;;;;;;;211.70;95.20;;;10.40;99.90;;;;;;4910771;29;20551;-73
2021/10/27 17:25:54;;;;;;;186.13;84.60;;;10.30;99.90;;;;;;4918722;29;20601;-70
2021/10/27 17:28:29;;;;;;;173.18;80.03;;;10.30;99.90;;;;;;4919330;29;20174;-72
2021/10/27 17:30:58;;;;;;;177.68;78.50;;;10.20;99.90;;;;;;4919372;29;20237;-69
2021/10/27 17:33:26;;;;;;;231.73;108.93;;;10.20;99.90;;;;;;4920036;29;20186;-70
2021/10/27 17:36:00;;;;;;;218.88;97.80;;;10.10;99.90;;;;;;4919948;29;20284;-73
2021/10/27 17:38:31;;;;;;;183.93;91.05;;;10.10;99.90;;;;;;4918939;29;20213;-74
2021/10/27 17:41:01;;;;;;;158.98;91.90;;;10.00;99.90;;;;;;4919397;29;20746;-72
2021/10/27 17:43:34;;;;;;;141.73;84.25;;;10.00;99.90;;;;;;4919105;29;20284;-69
2021/10/27 17:46:04;;;;;;;132.70;78.97;;;9.90;99.90;;;;;;4918700;29;20197;-73
2021/10/27 17:48:41;;;;;;;131.85;76.30;;;9.80;99.90;;;;;;4918824;29;20534;-69